Aviation Digital Data Service (ADDS)

Output produced by METARs form (1341 UTC 25 September 2018)
found at http://www.aviationweather.gov/metar/data/
 
LLBG 251320Z 30009KT CAVOK 29/19 Q1011 NOSIG
TAF LLBG 251104Z 2512/2612 28010KT 9999 FEW030 
     BECMG 2515/2518 VRB03KT SCT025 
     PROB40 2522/2605 15005KT BKN022 
     BECMG 2607/2609 28010KT SCT035 TX30/2512Z TN24/2603Z
       
LLET 251250Z 02014KT CAVOK 37/17 Q1008
TAF LLET 251103Z 2512/2612 02016KT CAVOK 
     BECMG 2516/2518 36010KT 
     BECMG 2606/2608 02016KT TX37/2513Z TN25/2604Z
       
LLHA 251250Z 30008KT 9999 FEW030 29/21 Q1011
TAF LLHA 251105Z 2512/2612 30010KT 9999 FEW030 
     BECMG 2516/2519 33005KT SCT025 
     BECMG 2522/2524 VRB04KT 
     PROB40 2600/2605 SCT020 
     BECMG 2607/2609 27010KT FEW030 TX30/2512Z TN25/2604Z
       
LLIB 251250Z 02009KT 9999 FEW040 33/20 Q1011
TAF LLIB 251106Z 2512/2612 30010KT CAVOK 
     BECMG 2516/2518 VRB03KT 8000 SCT020 
     PROB40 2522/2605 25004KT 6000 FEW010 SCT015 
     BECMG 2606/2608 17006KT CAVOK TX34/2512Z TN19/2603Z
       
LLSD 251250Z 30010KT 9999 FEW025 29/21 Q1011
TAF LLSD 251105Z 2512/2612 28010KT 9999 FEW030 
     BECMG 2515/2518 VRB04KT SCT025 
     PROB40 2521/2605 16005KT BKN020 
     BECMG 2606/2608 28010KT FEW030 TX29/2512Z TN24/2604Z